createdAt,value
2022-11-10T00:00:33.342Z,50.20
2022-11-10T00:03:19.461Z,59.30
2022-11-10T00:06:07.628Z,52.30
2022-11-10T00:08:53.229Z,50.50
2022-11-10T00:11:39.093Z,52.10
2022-11-10T00:14:42.311Z,54.40
2022-11-10T00:17:27.684Z,49.10
2022-11-10T00:20:14.114Z,49.40
2022-11-10T00:22:59.476Z,52.70
2022-11-10T00:25:44.975Z,55.20
2022-11-10T00:28:33.099Z,51.40
2022-11-10T00:31:18.512Z,49.70
2022-11-10T00:34:04.264Z,48.40
2022-11-10T00:36:49.794Z,50.20
2022-11-10T00:39:36.801Z,56.60
2022-11-10T00:42:22.359Z,50.90
2022-11-10T00:45:10.790Z,48.80
2022-11-10T00:47:56.100Z,46.70
2022-11-10T00:50:41.828Z,51.40
2022-11-10T00:53:27.313Z,48.40
2022-11-10T00:56:13.003Z,53.00
2022-11-10T00:58:59.161Z,48.50
2022-11-10T01:01:44.539Z,51.90
2022-11-10T01:04:30.201Z,48.00
2022-11-10T01:07:15.736Z,50.60
2022-11-10T01:10:01.217Z,49.40
2022-11-10T01:12:46.693Z,50.90
2022-11-10T01:15:32.589Z,53.80
2022-11-10T01:18:18.191Z,52.60
2022-11-10T01:21:04.506Z,52.90
2022-11-10T01:23:50.233Z,50.50
2022-11-10T01:26:36.469Z,52.60
2022-11-10T01:29:22.064Z,50.80
2022-11-10T01:32:07.951Z,48.80
2022-11-10T01:34:53.613Z,52.60
2022-11-10T01:37:40.624Z,51.90
2022-11-10T01:40:26.490Z,50.90
2022-11-10T01:43:14.106Z,54.20
2022-11-10T01:46:03.081Z,51.70
2022-11-10T01:48:52.254Z,51.90
2022-11-10T01:51:43.337Z,53.30
2022-11-10T01:54:31.738Z,54.10
2022-11-10T01:57:18.547Z,51.80
2022-11-10T02:00:05.361Z,49.00
2022-11-10T02:02:57.369Z,50.50
2022-11-10T02:05:44.552Z,51.30
2022-11-10T02:08:30.701Z,52.70
2022-11-10T02:11:16.910Z,56.10
2022-11-10T02:14:03.353Z,53.60
2022-11-10T02:16:49.147Z,53.90
2022-11-10T02:19:42.823Z,49.20
2022-11-10T02:22:28.363Z,57.30
2022-11-10T02:25:15.004Z,52.30
2022-11-10T02:28:00.291Z,49.70
2022-11-10T02:30:45.873Z,53.90
2022-11-10T02:33:31.712Z,53.10
2022-11-10T02:36:17.278Z,54.10
2022-11-10T02:39:02.818Z,54.50
2022-11-10T02:41:48.194Z,55.90
2022-11-10T02:44:33.888Z,55.80
2022-11-10T02:47:19.484Z,52.80
2022-11-10T02:50:05.082Z,52.40
2022-11-10T02:52:50.733Z,55.70
2022-11-10T02:55:36.541Z,53.20
2022-11-10T02:58:22.500Z,57.20
2022-11-10T03:01:08.989Z,52.50
2022-11-10T03:03:54.487Z,55.00
2022-11-10T03:06:40.567Z,52.80
2022-11-10T03:09:26.273Z,52.40
2022-11-10T03:12:11.641Z,57.00
2022-11-10T03:14:57.911Z,59.60
2022-11-10T03:17:43.474Z,50.70
2022-11-10T03:24:26.000Z,53.20
2022-11-10T03:27:12.031Z,53.90
2022-11-10T03:29:57.775Z,51.00
2022-11-10T03:32:43.822Z,56.20
2022-11-10T03:35:29.550Z,52.50
2022-11-10T03:38:15.398Z,49.70
2022-11-10T03:44:07.549Z,54.90
2022-11-10T03:46:53.440Z,52.40
2022-11-10T03:49:39.369Z,54.90
2022-11-10T03:52:25.351Z,52.50
2022-11-10T03:55:13.434Z,50.90
2022-11-10T03:58:01.996Z,46.90
2022-11-10T04:00:47.937Z,52.80
2022-11-10T04:03:33.936Z,50.10
2022-11-10T04:06:46.172Z,51.00
2022-11-10T04:09:32.096Z,49.50
2022-11-10T04:12:35.374Z,47.50
2022-11-10T04:15:38.859Z,53.00
2022-11-10T04:18:29.823Z,48.00
2022-11-10T04:21:15.805Z,52.70
2022-11-10T04:24:01.455Z,48.90
2022-11-10T04:26:48.749Z,52.70
2022-11-10T04:32:18.879Z,54.10
2022-11-10T04:35:04.731Z,56.40
2022-11-10T04:37:51.141Z,53.00
2022-11-10T04:40:36.896Z,50.10
2022-11-10T04:43:23.177Z,50.00
2022-11-10T04:46:23.071Z,50.40
2022-11-10T04:49:09.675Z,49.10
2022-11-10T04:51:55.308Z,51.60
2022-11-10T04:54:41.149Z,52.20
2022-11-10T04:57:27.055Z,54.40
2022-11-10T05:00:15.258Z,54.20
2022-11-10T05:03:02.994Z,49.30
2022-11-10T05:05:49.297Z,47.30
2022-11-10T05:08:35.269Z,49.00
2022-11-10T05:11:21.098Z,48.70
2022-11-10T05:14:07.102Z,48.40
2022-11-10T05:16:52.733Z,49.90
2022-11-10T05:19:38.252Z,52.30
2022-11-10T05:22:24.222Z,52.10
2022-11-10T05:25:11.259Z,50.90
2022-11-10T05:27:56.635Z,54.40
2022-11-10T05:30:42.686Z,48.10
2022-11-10T05:33:28.438Z,50.50
2022-11-10T05:36:14.103Z,47.50
2022-11-10T05:39:00.053Z,47.90
2022-11-10T05:41:46.078Z,49.90
2022-11-10T05:44:31.851Z,49.70
2022-11-10T05:47:18.141Z,51.30
2022-11-10T05:50:04.220Z,51.60
2022-11-10T05:52:52.696Z,52.90
2022-11-10T05:55:38.801Z,50.50
2022-11-10T05:58:24.779Z,48.30
2022-11-10T06:01:10.633Z,48.20
2022-11-10T06:03:56.695Z,53.30
2022-11-10T06:06:42.734Z,50.50
2022-11-10T06:09:28.431Z,49.00
2022-11-10T06:12:14.486Z,50.50
2022-11-10T06:15:00.554Z,48.30
2022-11-10T06:17:46.749Z,51.70
2022-11-10T06:20:32.696Z,50.20
2022-11-10T06:23:18.971Z,50.80
2022-11-10T06:26:04.714Z,47.50
2022-11-10T06:28:50.376Z,48.60
2022-11-10T06:31:36.555Z,52.40
2022-11-10T06:34:22.409Z,48.90
2022-11-10T06:37:08.663Z,47.30
2022-11-10T06:39:54.291Z,54.60
2022-11-10T06:42:39.975Z,50.00
2022-11-10T06:45:28.614Z,51.30
2022-11-10T06:48:16.183Z,51.40
2022-11-10T06:51:04.368Z,56.10
2022-11-10T06:53:50.535Z,54.00
2022-11-10T06:56:36.568Z,48.60
2022-11-10T06:59:22.328Z,47.90
2022-11-10T07:02:11.724Z,45.40
2022-11-10T07:04:57.524Z,48.50
2022-11-10T07:07:43.551Z,44.60
2022-11-10T07:10:29.368Z,47.00
2022-11-10T07:13:15.165Z,46.20
2022-11-10T07:16:00.902Z,44.30
2022-11-10T07:18:48.737Z,43.90
2022-11-10T07:21:35.975Z,43.30
2022-11-10T07:24:21.788Z,44.20
2022-11-10T07:27:08.396Z,48.00
2022-11-10T07:29:54.377Z,47.90
2022-11-10T07:32:40.281Z,43.80
2022-11-10T07:35:28.427Z,45.20
2022-11-10T07:38:15.717Z,49.00
2022-11-10T07:43:46.310Z,44.90
2022-11-10T07:46:33.136Z,47.60
2022-11-10T07:49:18.818Z,45.20
2022-11-10T07:52:04.985Z,41.20
2022-11-10T07:54:50.836Z,44.70
2022-11-10T07:57:37.110Z,43.80
2022-11-10T08:00:23.563Z,43.90
2022-11-10T08:03:12.154Z,43.90
2022-11-10T08:05:58.369Z,41.90
2022-11-10T08:08:44.532Z,42.20
2022-11-10T08:11:30.513Z,40.40
2022-11-10T08:14:16.526Z,42.20
2022-11-10T08:17:02.613Z,43.30
2022-11-10T08:19:48.319Z,41.10
2022-11-10T08:22:34.093Z,44.60
2022-11-10T08:25:35.919Z,42.50
2022-11-10T08:28:22.386Z,39.30
2022-11-10T08:31:08.620Z,41.00
2022-11-10T08:33:59.288Z,39.30
2022-11-10T08:36:44.958Z,44.30
2022-11-10T08:39:39.077Z,39.90
2022-11-10T08:42:25.203Z,42.50
2022-11-10T08:45:14.475Z,41.80
2022-11-10T08:48:01.610Z,39.90
2022-11-10T08:50:47.712Z,41.40
2022-11-10T08:53:33.273Z,38.40
2022-11-10T08:56:19.178Z,37.70
2022-11-10T08:59:04.750Z,37.40
2022-11-10T09:01:50.979Z,38.00
2022-11-10T09:04:37.942Z,38.00
2022-11-10T09:10:09.819Z,39.40
2022-11-10T09:12:55.870Z,41.80
2022-11-10T09:15:42.971Z,36.10
2022-11-10T09:18:29.480Z,40.60
2022-11-10T09:21:15.264Z,34.50
2022-11-10T09:24:01.110Z,37.00
2022-11-10T09:26:48.184Z,36.40
2022-11-10T09:29:34.150Z,35.20
2022-11-10T09:32:19.775Z,37.90
2022-11-10T09:35:06.350Z,33.90
2022-11-10T09:37:52.158Z,36.70
2022-11-10T09:40:53.107Z,38.90
2022-11-10T09:43:45.526Z,36.40
2022-11-10T09:46:37.825Z,37.40
2022-11-10T09:49:34.491Z,35.60
2022-11-10T09:52:23.193Z,30.40
2022-11-10T09:55:27.506Z,35.60
2022-11-10T09:58:15.520Z,34.30
2022-11-10T10:01:11.373Z,34.00
2022-11-10T10:04:07.198Z,32.00
2022-11-10T10:07:10.613Z,33.50
2022-11-10T10:10:05.815Z,33.40
2022-11-10T10:13:11.800Z,30.50
2022-11-10T10:16:11.827Z,34.00
2022-11-10T10:19:03.987Z,30.70
2022-11-10T10:22:05.864Z,31.10
2022-11-10T10:24:55.280Z,32.10
2022-11-10T10:27:42.048Z,32.90
2022-11-10T10:30:27.710Z,28.90
2022-11-10T10:33:18.496Z,28.80
2022-11-10T10:36:08.386Z,31.50
2022-11-10T10:38:56.990Z,27.40
2022-11-10T10:41:46.445Z,28.90
2022-11-10T10:44:32.545Z,29.60
2022-11-10T10:47:18.340Z,27.90
2022-11-10T10:50:23.199Z,26.00
2022-11-10T10:53:17.018Z,26.30
2022-11-10T10:56:06.949Z,28.00
2022-11-10T10:58:56.938Z,28.40
2022-11-10T11:01:44.795Z,26.30
2022-11-10T11:04:34.064Z,24.20
2022-11-10T11:07:26.093Z,26.40
2022-11-10T11:10:24.477Z,24.90
2022-11-10T11:13:22.292Z,23.80
2022-11-10T11:16:10.023Z,23.60
2022-11-10T11:18:56.274Z,22.80
2022-11-10T11:21:53.023Z,24.00
2022-11-10T11:24:44.826Z,23.70
2022-11-10T11:27:39.307Z,25.50
2022-11-10T11:30:26.585Z,25.50
2022-11-10T11:33:34.053Z,24.50
2022-11-10T11:36:29.023Z,25.70
2022-11-10T11:39:37.654Z,23.10
2022-11-10T11:42:31.203Z,22.20
2022-11-10T11:45:26.417Z,24.10
2022-11-10T11:48:33.374Z,20.80
2022-11-10T11:51:27.669Z,23.00
2022-11-10T11:54:35.079Z,25.50
2022-11-10T11:57:37.115Z,19.00
2022-11-10T12:00:26.290Z,25.40
2022-11-10T12:03:40.635Z,21.20
2022-11-10T12:06:35.777Z,23.80
2022-11-10T12:09:28.443Z,23.60
2022-11-10T12:12:37.933Z,22.00
2022-11-10T12:15:34.889Z,21.00
2022-11-10T12:18:30.918Z,20.30
2022-11-10T12:21:25.967Z,19.20
2022-11-10T12:24:29.094Z,23.70
2022-11-10T12:27:19.306Z,20.60
2022-11-10T12:30:11.065Z,19.40
2022-11-10T12:33:03.804Z,21.00
2022-11-10T12:35:49.680Z,21.00
2022-11-10T12:38:45.508Z,18.70
2022-11-10T12:41:35.040Z,18.50
2022-11-10T12:44:29.036Z,18.60
2022-11-10T12:47:21.466Z,21.00
2022-11-10T12:50:26.454Z,24.20
2022-11-10T12:53:19.808Z,16.10
2022-11-10T12:56:11.470Z,21.00
2022-11-10T12:59:23.432Z,20.10
2022-11-10T13:02:25.051Z,18.90
2022-11-10T13:05:31.405Z,16.30
2022-11-10T13:08:25.716Z,17.40
2022-11-10T13:11:25.679Z,19.00
2022-11-10T13:14:26.059Z,18.40
2022-11-10T13:17:13.554Z,17.90
2022-11-10T13:20:14.230Z,20.60
2022-11-10T13:23:24.040Z,17.40
2022-11-10T13:26:32.210Z,18.20
2022-11-10T13:29:32.366Z,18.20
2022-11-10T13:32:30.811Z,18.80
2022-11-10T13:35:55.258Z,18.90
2022-11-10T13:38:43.233Z,20.40
2022-11-10T13:44:25.754Z,18.20
2022-11-10T13:47:48.610Z,19.00
2022-11-10T13:50:44.681Z,22.20
2022-11-10T13:53:41.813Z,19.50
2022-11-10T13:56:50.486Z,17.50
2022-11-10T13:59:47.882Z,16.90
2022-11-10T14:03:02.551Z,15.40
2022-11-10T14:06:10.839Z,19.40
2022-11-10T14:09:01.811Z,17.70
2022-11-10T14:11:52.778Z,16.30
2022-11-10T14:14:52.964Z,20.20
2022-11-10T14:17:45.566Z,16.50
2022-11-10T14:20:42.085Z,21.00
2022-11-10T14:23:35.028Z,23.50
2022-11-10T14:26:26.995Z,21.30
2022-11-10T14:29:35.880Z,20.20
2022-11-10T14:32:28.444Z,21.00
2022-11-10T14:35:24.658Z,24.60
2022-11-10T14:38:21.289Z,20.40
2022-11-10T14:41:16.017Z,22.00
2022-11-10T14:44:06.917Z,21.10
2022-11-10T14:46:53.589Z,22.90
2022-11-10T14:49:39.350Z,26.60
2022-11-10T14:52:25.419Z,22.30
2022-11-10T14:55:18.736Z,21.90
2022-11-10T14:58:09.045Z,21.00
2022-11-10T15:00:55.407Z,24.00
2022-11-10T15:03:43.823Z,21.90
2022-11-10T15:06:31.060Z,24.20
2022-11-10T15:09:23.223Z,21.30
2022-11-10T15:12:24.699Z,24.70
2022-11-10T15:15:22.493Z,23.70
2022-11-10T15:21:02.938Z,20.30
2022-11-10T15:23:54.005Z,22.60
2022-11-10T15:26:42.764Z,21.10
2022-11-10T15:29:30.485Z,22.40
2022-11-10T15:32:21.293Z,21.30
2022-11-10T15:35:29.842Z,19.20
2022-11-10T15:38:29.203Z,21.80
2022-11-10T15:41:20.727Z,20.00
2022-11-10T15:44:21.067Z,21.30
2022-11-10T15:47:07.754Z,22.50
2022-11-10T15:49:54.114Z,20.40
2022-11-10T15:52:41.185Z,26.30
2022-11-10T15:55:27.695Z,23.10
2022-11-10T15:58:20.357Z,21.40
2022-11-10T16:01:07.023Z,21.70
2022-11-10T16:03:52.750Z,23.50
2022-11-10T16:06:38.462Z,23.80
2022-11-10T16:09:24.484Z,21.40
2022-11-10T16:12:15.037Z,24.30
2022-11-10T16:15:01.447Z,24.20
2022-11-10T16:17:47.088Z,26.30
2022-11-10T16:20:32.876Z,22.60
2022-11-10T16:23:18.460Z,21.60
2022-11-10T16:26:07.815Z,22.00
2022-11-10T16:28:53.530Z,20.20
2022-11-10T16:31:39.578Z,25.10
2022-11-10T16:34:25.748Z,19.20
2022-11-10T16:37:15.065Z,22.00
2022-11-10T16:40:00.754Z,26.70
2022-11-10T16:42:47.436Z,23.70
2022-11-10T16:45:33.601Z,23.50
2022-11-10T16:48:24.302Z,23.90
2022-11-10T16:51:11.388Z,24.30
2022-11-10T16:54:00.762Z,26.00
2022-11-10T16:56:46.601Z,23.60
2022-11-10T16:59:32.091Z,25.40
2022-11-10T17:02:29.787Z,28.30
2022-11-10T17:05:17.262Z,27.60
2022-11-10T17:08:04.460Z,26.70
2022-11-10T17:10:49.979Z,22.60
2022-11-10T17:13:35.702Z,28.40
2022-11-10T17:16:26.924Z,25.20
2022-11-10T17:19:20.135Z,24.60
2022-11-10T17:22:06.074Z,25.00
2022-11-10T17:24:56.332Z,26.60
2022-11-10T17:27:42.060Z,24.00
2022-11-10T17:30:28.342Z,20.50
2022-11-10T17:33:14.505Z,25.00
2022-11-10T17:36:02.272Z,30.30
2022-11-10T17:38:48.365Z,27.00
2022-11-10T17:41:35.412Z,24.30
2022-11-10T17:44:21.136Z,25.40
2022-11-10T17:47:06.816Z,29.10
2022-11-10T17:49:52.134Z,25.80
2022-11-10T17:52:37.834Z,27.40
2022-11-10T17:55:31.133Z,25.90
2022-11-10T17:58:20.220Z,24.30
2022-11-10T18:01:12.329Z,22.90
2022-11-10T18:03:58.208Z,26.60
2022-11-10T18:06:45.288Z,32.00
2022-11-10T18:09:30.910Z,28.90
2022-11-10T18:12:16.453Z,27.40
2022-11-10T18:15:02.471Z,32.00
2022-11-10T18:17:48.441Z,32.10
2022-11-10T18:20:34.327Z,29.80
2022-11-10T18:23:20.453Z,26.00
2022-11-10T18:26:11.783Z,24.90
2022-11-10T18:28:57.303Z,26.70
2022-11-10T18:31:42.747Z,31.00
2022-11-10T18:34:28.383Z,23.80
2022-11-10T18:37:14.129Z,28.70
2022-11-10T18:39:59.877Z,26.00
2022-11-10T18:42:45.447Z,28.50
2022-11-10T18:45:31.342Z,25.20
2022-11-10T18:48:16.970Z,30.70
2022-11-10T18:51:07.796Z,30.60
2022-11-10T18:53:54.324Z,30.80
2022-11-10T18:56:40.527Z,29.90
2022-11-10T18:59:26.311Z,26.90
2022-11-10T19:02:14.408Z,24.20
2022-11-10T19:05:00.536Z,26.20
2022-11-10T19:07:47.801Z,29.60
2022-11-10T19:10:33.243Z,29.70
2022-11-10T19:13:18.753Z,25.60
2022-11-10T19:16:08.680Z,27.10
2022-11-10T19:18:54.671Z,25.70
2022-11-10T19:21:40.505Z,24.70
2022-11-10T19:24:28.249Z,24.50
2022-11-10T19:27:15.749Z,23.90
2022-11-10T19:30:01.642Z,22.80
2022-11-10T19:32:47.611Z,22.70
2022-11-10T19:35:33.827Z,25.60
2022-11-10T19:38:19.547Z,23.60
2022-11-10T19:41:08.412Z,24.60
2022-11-10T19:43:53.987Z,24.90
2022-11-10T19:46:39.751Z,25.40
2022-11-10T19:49:25.833Z,25.30
2022-11-10T19:52:11.622Z,24.70
2022-11-10T19:54:57.866Z,27.60
2022-11-10T19:57:43.868Z,27.10
2022-11-10T20:00:29.761Z,27.80
2022-11-10T20:03:15.773Z,26.30
2022-11-10T20:06:03.447Z,26.20
2022-11-10T20:08:49.593Z,27.10
2022-11-10T20:11:35.025Z,24.80
2022-11-10T20:14:20.813Z,23.60
2022-11-10T20:17:06.854Z,27.30
2022-11-10T20:19:52.353Z,25.20
2022-11-10T20:22:38.455Z,30.70
2022-11-10T20:25:24.748Z,28.10
2022-11-10T20:28:10.580Z,32.60
2022-11-10T20:30:58.258Z,27.40
2022-11-10T20:33:45.402Z,23.80
2022-11-10T20:36:34.029Z,26.20
2022-11-10T20:39:19.988Z,25.90
2022-11-10T20:42:06.196Z,24.20
2022-11-10T20:44:51.922Z,24.70
2022-11-10T20:47:37.699Z,22.50
2022-11-10T20:50:24.700Z,23.90
2022-11-10T20:53:10.429Z,24.20
2022-11-10T20:56:02.065Z,25.40
2022-11-10T20:58:47.690Z,31.20
2022-11-10T21:01:33.756Z,26.40
2022-11-10T21:04:19.673Z,24.00
2022-11-10T21:07:05.631Z,25.10
2022-11-10T21:09:51.477Z,29.00
2022-11-10T21:12:52.334Z,26.60
2022-11-10T21:15:40.333Z,29.60
2022-11-10T21:18:27.379Z,25.50
2022-11-10T21:21:22.709Z,24.40
2022-11-10T21:24:10.192Z,30.60
2022-11-10T21:26:59.798Z,29.30
2022-11-10T21:29:47.968Z,24.70
2022-11-10T21:32:34.159Z,26.40
2022-11-10T21:35:20.490Z,27.10
2022-11-10T21:38:06.836Z,24.50
2022-11-10T21:40:53.059Z,24.60
2022-11-10T21:43:39.315Z,30.70
2022-11-10T21:46:25.287Z,24.50
2022-11-10T21:49:11.018Z,29.70
2022-11-10T21:51:56.861Z,26.20
2022-11-10T21:54:42.741Z,26.00
2022-11-10T21:57:28.500Z,24.90
2022-11-10T22:00:16.936Z,25.00
2022-11-10T22:03:03.824Z,22.10
2022-11-10T22:05:49.713Z,23.40
2022-11-10T22:08:36.535Z,23.00
2022-11-10T22:11:40.959Z,22.10
2022-11-10T22:14:44.370Z,22.50
2022-11-10T22:17:48.263Z,20.20
2022-11-10T22:20:34.768Z,24.20
2022-11-10T22:23:40.624Z,20.70
2022-11-10T22:26:26.683Z,22.40
2022-11-10T22:29:13.092Z,21.50
2022-11-10T22:31:59.066Z,20.60
2022-11-10T22:34:44.739Z,25.40
2022-11-10T22:37:33.344Z,25.80
2022-11-10T22:40:36.545Z,25.60
2022-11-10T22:43:39.760Z,25.40
2022-11-10T22:46:25.020Z,22.80
2022-11-10T22:49:14.216Z,24.00
2022-11-10T22:52:00.111Z,22.20
2022-11-10T22:54:45.710Z,25.10
2022-11-10T22:57:31.382Z,23.20
2022-11-10T23:00:19.373Z,19.10
2022-11-10T23:03:05.095Z,21.00
2022-11-10T23:05:56.442Z,21.30
2022-11-10T23:08:42.854Z,25.00
2022-11-10T23:11:30.647Z,23.90
2022-11-10T23:14:16.601Z,23.60
2022-11-10T23:17:02.142Z,22.10
2022-11-10T23:19:47.769Z,23.50
2022-11-10T23:22:33.897Z,21.70
2022-11-10T23:25:19.958Z,22.20
2022-11-10T23:28:05.994Z,22.50
2022-11-10T23:30:52.148Z,23.50
2022-11-10T23:33:38.790Z,24.20
2022-11-10T23:36:25.950Z,25.20
2022-11-10T23:39:13.204Z,26.10
2022-11-10T23:41:59.293Z,24.10
2022-11-10T23:44:45.070Z,24.90
2022-11-10T23:47:31.174Z,23.50
2022-11-10T23:50:17.156Z,28.00
2022-11-10T23:53:03.153Z,28.40
2022-11-10T23:55:56.954Z,26.60
2022-11-10T23:58:43.841Z,25.30
